Time;durP1;ratioP1;P1;durP2;ratioP2;P2;SDS_P1;SDS_P2;PMS_P1;PMS_P2;Temp;Humidity;BMP_temperature;BMP_pressure;BME280_temperature;BME280_humidity;BME280_pressure;Samples;Min_cycle;Max_cycle;Signal;HPM_P1;HPM_P2
2022/06/13 00:02:07;;;;;;;12.27;6.40;;;14.30;99.90;;;;;;5042986;28;20562;-78
2022/06/13 00:04:35;;;;;;;17.83;7.50;;;14.30;99.90;;;;;;5038897;28;20650;-78
2022/06/13 00:07:02;;;;;;;17.07;6.77;;;14.30;99.90;;;;;;5041992;28;20559;-78
2022/06/13 00:09:29;;;;;;;12.40;6.97;;;14.30;99.90;;;;;;5040168;28;20287;-77
2022/06/13 00:11:57;;;;;;;22.23;7.40;;;14.40;99.90;;;;;;5041855;28;20270;-79
2022/06/13 00:14:23;;;;;;;18.07;6.27;;;14.40;99.90;;;;;;5041843;28;20206;-79
2022/06/13 00:16:50;;;;;;;11.93;5.90;;;14.40;99.90;;;;;;5036053;28;20209;-78
2022/06/13 00:19:17;;;;;;;19.00;7.13;;;14.40;99.90;;;;;;5041824;28;20649;-79
2022/06/13 00:21:44;;;;;;;16.70;6.43;;;14.50;99.90;;;;;;5039402;28;20225;-78
2022/06/13 00:24:11;;;;;;;16.47;6.43;;;14.60;99.90;;;;;;5040628;28;20229;-78
2022/06/13 00:26:38;;;;;;;15.50;6.60;;;14.60;99.90;;;;;;5040044;28;20210;-76
2022/06/13 00:29:05;;;;;;;17.70;7.30;;;14.60;99.90;;;;;;5041094;28;20221;-78
2022/06/13 00:31:32;;;;;;;18.77;7.67;;;14.70;99.90;;;;;;5042689;28;20592;-78
2022/06/13 00:33:58;;;;;;;14.43;6.87;;;14.70;99.90;;;;;;5046428;28;20197;-78
2022/06/13 00:36:25;;;;;;;17.70;7.10;;;14.80;99.90;;;;;;5039916;28;20576;-78
2022/06/13 00:38:55;;;;;;;14.27;5.77;;;14.80;99.90;;;;;;5041874;28;20271;-78
2022/06/13 00:41:28;;;;;;;13.97;6.47;;;14.80;99.90;;;;;;5039813;28;20206;-76
2022/06/13 00:43:56;;;;;;;15.23;7.20;;;14.90;99.90;;;;;;5037699;28;20202;-78
2022/06/13 00:46:28;;;;;;;17.13;6.37;;;15.00;99.90;;;;;;5057124;28;20205;-79
2022/06/13 00:49:13;;;;;;;13.90;6.23;;;15.00;99.90;;;;;;5040290;28;20255;-79
2022/06/13 00:51:44;;;;;;;11.53;6.07;;;15.00;99.90;;;;;;5035715;28;20236;-78
2022/06/13 00:54:14;;;;;;;16.50;7.07;;;15.00;99.90;;;;;;5038781;28;20698;-80
2022/06/13 00:56:41;;;;;;;12.83;6.70;;;15.00;99.90;;;;;;5038542;28;20691;-79
2022/06/13 00:59:14;;;;;;;13.53;5.93;;;15.00;99.90;;;;;;5042705;28;20661;-79
2022/06/13 01:01:41;;;;;;;14.37;6.00;;;15.00;99.90;;;;;;5041996;28;20226;-78
2022/06/13 01:04:09;;;;;;;11.00;5.93;;;15.00;99.90;;;;;;5044884;28;20201;-76
2022/06/13 01:06:46;;;;;;;15.50;6.80;;;15.00;99.90;;;;;;5043094;28;20293;-78
2022/06/13 01:09:16;;;;;;;12.13;6.33;;;15.00;99.90;;;;;;5048351;28;20224;-78
2022/06/13 01:11:51;;;;;;;11.80;5.90;;;15.10;99.90;;;;;;5054614;28;20205;-78
2022/06/13 01:14:29;;;;;;;14.47;6.67;;;15.10;99.90;;;;;;5045681;28;20201;-78
2022/06/13 01:17:14;;;;;;;13.80;7.50;;;15.10;99.90;;;;;;5047125;28;20209;-77
2022/06/13 01:20:00;;;;;;;16.73;6.83;;;15.10;99.90;;;;;;5052521;28;20217;-75
2022/06/13 01:22:54;;;;;;;17.33;7.23;;;15.10;99.90;;;;;;5041126;28;20212;-77
2022/06/13 01:25:43;;;;;;;18.67;8.00;;;15.00;99.90;;;;;;5039748;28;20229;-77
2022/06/13 01:28:12;;;;;;;21.60;9.53;;;15.00;99.90;;;;;;5038509;28;20221;-78
2022/06/13 01:31:04;;;;;;;15.93;8.00;;;15.00;99.90;;;;;;5037643;28;20232;-79
2022/06/13 01:33:59;;;;;;;23.73;9.17;;;15.00;99.90;;;;;;5042912;28;20202;-77
2022/06/13 01:36:35;;;;;;;18.13;8.07;;;15.00;99.90;;;;;;5035125;28;20237;-77
2022/06/13 01:39:11;;;;;;;20.60;8.70;;;15.00;99.90;;;;;;5037519;28;20213;-75
2022/06/13 01:41:56;;;;;;;15.67;8.63;;;15.00;99.90;;;;;;5033063;28;20210;-76
2022/06/13 01:44:26;;;;;;;20.00;8.43;;;15.00;99.90;;;;;;5037603;28;20268;-77
2022/06/13 01:47:06;;;;;;;17.87;8.90;;;15.00;99.90;;;;;;5036464;28;20343;-78
2022/06/13 01:49:52;;;;;;;22.30;9.10;;;15.00;99.90;;;;;;5037093;28;20233;-77
2022/06/13 01:52:48;;;;;;;18.70;9.27;;;14.90;99.90;;;;;;5037452;28;20323;-78
2022/06/13 01:55:37;;;;;;;19.90;9.10;;;14.90;99.90;;;;;;5037503;28;20222;-76
2022/06/13 01:58:14;;;;;;;22.27;9.87;;;14.90;99.90;;;;;;5037628;28;20259;-78
2022/06/13 02:00:49;;;;;;;23.83;9.83;;;14.80;99.90;;;;;;5038085;28;20213;-77
2022/06/13 02:03:22;;;;;;;16.97;8.80;;;14.80;99.90;;;;;;5036075;28;20205;-77
2022/06/13 02:06:01;;;;;;;21.63;9.63;;;14.80;99.90;;;;;;5036858;28;20213;-78
2022/06/13 02:08:50;;;;;;;17.23;8.57;;;14.80;99.90;;;;;;5036039;28;20730;-78
2022/06/13 02:11:32;;;;;;;20.53;9.97;;;14.80;99.90;;;;;;5070901;28;20298;-78
2022/06/13 02:14:06;;;;;;;20.23;9.37;;;14.80;99.90;;;;;;5038598;28;20205;-78
2022/06/13 02:16:43;;;;;;;14.60;8.97;;;14.80;99.90;;;;;;5037998;28;20673;-78
2022/06/13 02:19:15;;;;;;;19.03;9.47;;;14.80;99.90;;;;;;5034845;28;20237;-79
2022/06/13 02:21:47;;;;;;;16.63;9.40;;;14.70;99.90;;;;;;5038355;28;20254;-77
2022/06/13 02:24:18;;;;;;;21.23;9.40;;;14.80;99.90;;;;;;5037077;28;20225;-78
2022/06/13 02:26:51;;;;;;;23.23;9.50;;;14.80;99.90;;;;;;5034805;28;20209;-78
2022/06/13 02:29:37;;;;;;;20.07;8.47;;;14.80;99.90;;;;;;5037953;28;20707;-79
2022/06/13 02:32:40;;;;;;;19.30;8.70;;;14.80;99.90;;;;;;5067449;28;20208;-79
2022/06/13 02:35:15;;;;;;;20.37;8.93;;;14.70;99.90;;;;;;5038678;28;20201;-80
2022/06/13 02:38:21;;;;;;;20.53;9.53;;;14.70;99.90;;;;;;5027292;28;20205;-77
2022/06/13 02:40:53;;;;;;;16.80;8.07;;;14.60;99.90;;;;;;5030291;28;20586;-79
2022/06/13 02:43:29;;;;;;;21.03;9.80;;;14.60;99.90;;;;;;5039058;28;20213;-80
2022/06/13 02:46:16;;;;;;;17.70;8.87;;;14.60;99.90;;;;;;5035048;28;20210;-81
2022/06/13 02:48:55;;;;;;;22.83;8.97;;;14.60;99.90;;;;;;5035817;28;20205;-80
2022/06/13 02:51:37;;;;;;;20.87;8.63;;;14.60;99.90;;;;;;5035526;28;20722;-78
2022/06/13 02:54:27;;;;;;;21.33;9.10;;;14.50;99.90;;;;;;5037550;28;20241;-79
2022/06/13 02:57:25;;;;;;;28.67;8.93;;;14.50;99.90;;;;;;5030420;28;20259;-78
2022/06/13 03:00:23;;;;;;;14.60;7.70;;;14.50;99.90;;;;;;5038048;28;20551;-79
2022/06/13 03:02:58;;;;;;;15.33;8.93;;;14.50;99.90;;;;;;5042290;28;20288;-78
2022/06/13 03:05:27;;;;;;;17.03;8.80;;;14.50;99.90;;;;;;5038574;28;20629;-79
2022/06/13 03:08:20;;;;;;;20.87;8.97;;;14.60;99.90;;;;;;5039625;28;20217;-79
2022/06/13 03:10:57;;;;;;;21.27;8.80;;;14.60;99.90;;;;;;5041657;28;20291;-79
2022/06/13 03:13:36;;;;;;;17.83;8.77;;;14.50;99.90;;;;;;5039544;28;20217;-80
2022/06/13 03:16:12;;;;;;;19.57;8.83;;;14.50;99.90;;;;;;5038173;28;20251;-79
2022/06/13 03:18:51;;;;;;;21.90;9.40;;;14.50;99.90;;;;;;5038596;28;20665;-80
2022/06/13 03:21:32;;;;;;;24.37;9.17;;;14.60;99.90;;;;;;5041717;28;20624;-78
2022/06/13 03:24:10;;;;;;;18.87;7.77;;;14.60;99.90;;;;;;5040425;28;20661;-80
2022/06/13 03:26:42;;;;;;;18.13;8.43;;;14.60;99.90;;;;;;5053879;28;20632;-79
2022/06/13 03:29:15;;;;;;;20.40;8.27;;;14.60;99.90;;;;;;5039837;28;20723;-78
2022/06/13 03:31:50;;;;;;;21.23;8.07;;;14.60;99.90;;;;;;5041833;28;20746;-79
2022/06/13 03:34:21;;;;;;;15.00;8.13;;;14.60;99.90;;;;;;5040776;28;20224;-79
2022/06/13 03:36:58;;;;;;;21.67;8.27;;;14.70;99.90;;;;;;5041068;28;20315;-78
2022/06/13 03:39:31;;;;;;;15.70;7.17;;;14.70;99.90;;;;;;5039450;28;20295;-80
2022/06/13 03:42:09;;;;;;;18.57;8.50;;;14.70;99.90;;;;;;5039587;28;20263;-79
2022/06/13 03:45:07;;;;;;;23.50;8.07;;;14.70;99.90;;;;;;5040573;28;20217;-79
2022/06/13 03:47:42;;;;;;;18.97;7.50;;;14.70;99.90;;;;;;5040355;28;20591;-78
2022/06/13 03:50:16;;;;;;;18.73;8.10;;;14.70;99.90;;;;;;5038732;28;20227;-78
2022/06/13 03:52:46;;;;;;;23.23;9.03;;;14.70;99.90;;;;;;5039784;28;20674;-79
2022/06/13 03:55:19;;;;;;;22.77;7.97;;;14.70;99.90;;;;;;5039257;28;20225;-80
2022/06/13 03:57:54;;;;;;;16.70;7.60;;;14.80;99.90;;;;;;5037323;28;20723;-79
2022/06/13 04:00:46;;;;;;;14.67;8.03;;;14.80;99.90;;;;;;5038528;28;20601;-79
2022/06/13 04:03:13;;;;;;;17.87;8.20;;;14.80;99.90;;;;;;5037898;28;20216;-78
2022/06/13 04:05:52;;;;;;;18.90;7.93;;;14.70;99.90;;;;;;5040064;28;20721;-78
2022/06/13 04:08:22;;;;;;;16.37;7.87;;;14.80;99.90;;;;;;5038354;28;20532;-79
2022/06/13 04:11:25;;;;;;;21.30;9.50;;;14.70;99.90;;;;;;5037855;28;20244;-80
2022/06/13 04:14:18;;;;;;;22.37;9.07;;;14.80;99.90;;;;;;5040126;28;20217;-79
2022/06/13 04:17:21;;;;;;;23.60;10.17;;;14.80;99.90;;;;;;5031294;28;20210;-78
2022/06/13 04:20:10;;;;;;;21.03;8.50;;;14.80;99.90;;;;;;5030871;28;20275;-79
2022/06/13 04:23:12;;;;;;;15.93;8.10;;;14.80;99.90;;;;;;5038335;28;20215;-78
2022/06/13 04:25:38;;;;;;;18.70;9.47;;;14.90;99.90;;;;;;5040379;28;20291;-79
2022/06/13 04:28:23;;;;;;;24.90;9.37;;;14.90;99.90;;;;;;5037449;28;20210;-79
2022/06/13 04:30:53;;;;;;;24.07;8.90;;;15.00;99.90;;;;;;5036431;28;20230;-79
2022/06/13 04:33:36;;;;;;;23.77;9.07;;;15.00;99.90;;;;;;5040819;28;20252;-79
2022/06/13 04:36:06;;;;;;;21.80;8.93;;;15.00;99.90;;;;;;5037784;28;20213;-78
2022/06/13 04:38:33;;;;;;;18.37;8.90;;;15.00;99.90;;;;;;5040770;28;20267;-78
2022/06/13 04:41:05;;;;;;;28.87;9.93;;;15.10;99.90;;;;;;5037325;28;20681;-80
2022/06/13 04:43:38;;;;;;;19.17;8.57;;;15.10;99.90;;;;;;5038518;28;20622;-80
2022/06/13 04:46:15;;;;;;;21.23;10.20;;;15.20;99.90;;;;;;5040806;28;20579;-80
2022/06/13 04:48:44;;;;;;;21.37;9.83;;;15.30;99.90;;;;;;5037564;28;20441;-80
2022/06/13 04:51:15;;;;;;;21.47;8.53;;;15.40;99.90;;;;;;5038055;28;20283;-80
2022/06/13 04:53:57;;;;;;;19.17;9.17;;;15.30;99.90;;;;;;5039226;28;20729;-79
2022/06/13 04:56:25;;;;;;;22.30;9.10;;;15.40;99.90;;;;;;5037761;28;20210;-78
2022/06/13 04:58:53;;;;;;;21.17;8.37;;;15.50;99.90;;;;;;5040499;28;20217;-79
2022/06/13 05:01:33;;;;;;;17.43;8.93;;;15.50;99.90;;;;;;5040264;28;20691;-77
2022/06/13 05:04:03;;;;;;;28.10;9.90;;;15.60;99.90;;;;;;5039548;28;20216;-79
2022/06/13 05:06:38;;;;;;;20.37;8.57;;;15.70;99.90;;;;;;5037161;28;20254;-79
2022/06/13 05:09:16;;;;;;;20.43;9.10;;;15.70;99.90;;;;;;5038252;28;20582;-81
2022/06/13 05:12:04;;;;;;;22.80;8.80;;;15.90;99.90;;;;;;5035323;28;20243;-79
2022/06/13 05:14:56;;;;;;;19.27;8.87;;;15.90;99.90;;;;;;5036492;28;20214;-80
2022/06/13 05:17:54;;;;;;;15.97;8.20;;;16.00;99.90;;;;;;5035396;28;20631;-79
2022/06/13 05:20:40;;;;;;;17.73;8.80;;;16.10;99.90;;;;;;5037234;28;20299;-79
2022/06/13 05:23:37;;;;;;;19.83;8.33;;;16.20;99.90;;;;;;5027306;28;20284;-79
2022/06/13 05:26:06;;;;;;;20.17;8.10;;;16.40;99.90;;;;;;5027839;28;20221;-79
2022/06/13 05:28:34;;;;;;;17.07;7.10;;;16.40;99.90;;;;;;5028514;28;20260;-80
2022/06/13 05:31:09;;;;;;;12.83;7.17;;;16.50;99.90;;;;;;5027600;28;20590;-78
2022/06/13 05:33:40;;;;;;;19.40;6.77;;;16.60;99.90;;;;;;5031731;28;20204;-78
2022/06/13 05:36:11;;;;;;;16.03;6.23;;;16.60;99.90;;;;;;5037663;28;20214;-80
2022/06/13 05:38:46;;;;;;;10.27;6.17;;;16.70;99.90;;;;;;5036710;28;20268;-79
2022/06/13 05:41:12;;;;;;;9.57;5.30;;;16.70;99.90;;;;;;5033981;28;20713;-79
2022/06/13 05:43:39;;;;;;;10.37;5.50;;;16.80;99.90;;;;;;5037979;28;20209;-78
2022/06/13 05:46:08;;;;;;;11.57;5.37;;;16.90;99.90;;;;;;5038235;28;20220;-78
2022/06/13 05:48:35;;;;;;;10.00;5.20;;;16.90;99.90;;;;;;5036473;28;20690;-80
2022/06/13 05:51:02;;;;;;;10.33;5.33;;;17.10;99.90;;;;;;5039778;28;20240;-79
2022/06/13 05:53:29;;;;;;;10.23;4.90;;;17.20;99.90;;;;;;5035864;28;20216;-79
2022/06/13 05:55:59;;;;;;;10.97;5.00;;;17.20;99.90;;;;;;5037862;28;20275;-80
2022/06/13 05:58:26;;;;;;;14.77;5.07;;;17.30;99.90;;;;;;5037563;28;20256;-79
2022/06/13 06:00:57;;;;;;;10.90;4.93;;;17.40;99.90;;;;;;5038696;28;21028;-78
2022/06/13 06:03:25;;;;;;;14.37;4.90;;;17.50;99.90;;;;;;5038812;28;20227;-77
2022/06/13 06:05:53;;;;;;;11.55;4.28;;;17.50;99.90;;;;;;5036451;28;20205;-81
2022/06/13 06:08:30;;;;;;;8.25;4.40;;;17.60;99.90;;;;;;5037757;28;20213;-81
2022/06/13 06:10:58;;;;;;;9.57;4.35;;;17.80;99.90;;;;;;5038956;28;20279;-80
2022/06/13 06:13:28;;;;;;;6.18;4.18;;;17.90;99.90;;;;;;5036005;28;20328;-79
2022/06/13 06:15:56;;;;;;;11.63;4.07;;;18.10;99.90;;;;;;5036162;28;20235;-78
2022/06/13 06:18:24;;;;;;;9.30;4.10;;;18.10;99.90;;;;;;5035002;28;20597;-79
2022/06/13 06:20:51;;;;;;;10.38;4.03;;;18.20;99.90;;;;;;5035447;28;20271;-79
2022/06/13 06:23:19;;;;;;;10.20;3.85;;;18.30;99.90;;;;;;5035119;28;20574;-79
2022/06/13 06:25:49;;;;;;;13.40;4.05;;;18.40;99.90;;;;;;5037607;28;20225;-78
2022/06/13 06:28:20;;;;;;;8.45;3.65;;;18.50;99.90;;;;;;5036380;28;20315;-78
2022/06/13 06:30:47;;;;;;;7.35;3.40;;;18.50;99.90;;;;;;5039408;28;20229;-77
2022/06/13 06:33:14;;;;;;;9.18;3.13;;;18.60;99.90;;;;;;5036940;28;20217;-78
2022/06/13 06:35:42;;;;;;;8.93;3.47;;;18.50;99.90;;;;;;5041512;28;20586;-79
2022/06/13 06:38:09;;;;;;;8.63;3.22;;;18.60;99.90;;;;;;5040633;28;20213;-79
2022/06/13 06:40:38;;;;;;;5.93;3.03;;;18.60;99.90;;;;;;5038710;28;20221;-78
2022/06/13 06:43:05;;;;;;;8.05;2.80;;;18.60;99.90;;;;;;5039690;28;20209;-77
2022/06/13 06:45:32;;;;;;;4.15;2.50;;;18.90;99.90;;;;;;5042088;28;20262;-78
2022/06/13 06:47:59;;;;;;;7.03;2.40;;;19.20;99.90;;;;;;5037892;28;20267;-78
2022/06/13 06:50:29;;;;;;;11.38;3.20;;;19.40;99.90;;;;;;5041022;28;20249;-77
2022/06/13 06:52:56;;;;;;;5.93;2.28;;;19.60;99.90;;;;;;5041282;28;20249;-77
2022/06/13 07:01:03;;;;;;;5.22;1.92;;;20.40;99.90;;;;;;5042432;28;20205;-78
2022/06/13 07:03:31;;;;;;;6.07;2.10;;;20.50;99.90;;;;;;5038590;28;20210;-77
2022/06/13 07:05:58;;;;;;;5.18;1.80;;;20.80;99.90;;;;;;5030394;28;20209;-79
2022/06/13 07:08:25;;;;;;;4.10;1.90;;;20.80;99.90;;;;;;5029883;28;20210;-77
2022/06/13 07:10:51;;;;;;;4.57;1.60;;;20.90;99.90;;;;;;5030252;28;20222;-79
2022/06/13 07:13:20;;;;;;;3.65;2.17;;;21.20;99.90;;;;;;5030276;28;20653;-78
2022/06/13 07:15:48;;;;;;;6.22;1.67;;;21.50;99.90;;;;;;5030740;28;20206;-78
2022/06/13 07:18:16;;;;;;;5.28;1.98;;;21.70;99.90;;;;;;5037598;28;20509;-78
2022/06/13 07:20:44;;;;;;;7.85;1.95;;;22.10;99.90;;;;;;5041550;28;20209;-78
2022/06/13 07:23:11;;;;;;;4.10;1.70;;;22.10;99.90;;;;;;5038051;28;20218;-78
2022/06/13 07:25:44;;;;;;;5.63;1.70;;;22.30;99.90;;;;;;5040886;28;20218;-78
2022/06/13 07:28:11;;;;;;;4.20;1.60;;;22.90;99.90;;;;;;5038294;28;20214;-77
2022/06/13 07:30:38;;;;;;;4.60;1.65;;;23.90;99.90;;;;;;5041417;28;20227;-77
2022/06/13 07:33:05;;;;;;;5.43;1.50;;;24.40;99.90;;;;;;5038701;28;20229;-78
2022/06/13 07:35:32;;;;;;;7.45;2.13;;;24.10;99.90;;;;;;5041489;28;20209;-76
2022/06/13 07:38:17;;;;;;;3.28;1.45;;;23.80;99.90;;;;;;5039391;28;20205;-76
2022/06/13 07:40:48;;;;;;;5.00;1.35;;;23.70;99.90;;;;;;5037035;28;20271;-75
2022/06/13 07:43:33;;;;;;;4.05;1.40;;;23.60;99.90;;;;;;5040400;28;20567;-77
2022/06/13 07:46:03;;;;;;;7.15;1.58;;;23.20;99.90;;;;;;5038953;28;20365;-78
2022/06/13 07:48:31;;;;;;;5.43;1.60;;;22.70;99.90;;;;;;5038014;28;20213;-77
2022/06/13 07:50:59;;;;;;;4.55;1.88;;;22.30;99.90;;;;;;5040820;28;20669;-79
2022/06/13 07:53:26;;;;;;;5.60;2.10;;;21.90;99.90;;;;;;5038380;28;20214;-76
2022/06/13 07:56:16;;;;;;;6.05;1.88;;;21.50;99.90;;;;;;5037581;28;20226;-77
2022/06/13 07:58:45;;;;;;;5.43;1.70;;;20.90;99.90;;;;;;5039262;28;20212;-77
2022/06/13 08:01:13;;;;;;;5.30;1.90;;;20.80;99.90;;;;;;5043642;28;20665;-77
2022/06/13 08:03:40;;;;;;;5.95;1.60;;;21.10;99.90;;;;;;5038221;28;20218;-77
2022/06/13 08:06:08;;;;;;;6.20;1.50;;;21.80;99.90;;;;;;5041026;28;20205;-75
2022/06/13 08:08:35;;;;;;;6.03;1.63;;;22.50;99.90;;;;;;5037771;28;20254;-75
2022/06/13 08:11:04;;;;;;;4.35;1.77;;;23.20;99.90;;;;;;5039235;28;20224;-78
2022/06/13 08:13:33;;;;;;;4.05;1.60;;;23.90;99.90;;;;;;5039946;28;20206;-76
2022/06/13 08:16:00;;;;;;;5.05;1.30;;;24.20;99.90;;;;;;5038329;28;20732;-76
2022/06/13 08:18:27;;;;;;;3.13;1.10;;;24.30;99.90;;;;;;5037049;28;20219;-77
2022/06/13 08:20:54;;;;;;;3.83;1.00;;;24.10;99.90;;;;;;5039965;28;20613;-78
2022/06/13 08:23:22;;;;;;;3.85;0.98;;;24.20;99.90;;;;;;5038364;28;20307;-76
2022/06/13 08:25:50;;;;;;;2.47;0.82;;;24.10;99.10;;;;;;5036707;28;20682;-78
2022/06/13 08:28:17;;;;;;;3.53;0.98;;;23.50;96.90;;;;;;5039881;28;20675;-77
2022/06/13 08:31:17;;;;;;;5.50;1.17;;;22.60;97.60;;;;;;5037265;28;20218;-77
2022/06/13 08:33:44;;;;;;;4.07;1.10;;;22.10;99.20;;;;;;5067383;28;20606;-77
2022/06/13 08:36:11;;;;;;;5.32;1.10;;;22.10;99.90;;;;;;5038495;28;20641;-76
2022/06/13 08:38:39;;;;;;;2.70;1.10;;;22.40;99.90;;;;;;5038162;28;20205;-77
2022/06/13 08:41:11;;;;;;;6.63;1.30;;;22.80;99.90;;;;;;5035169;28;20260;-76
2022/06/13 08:44:19;;;;;;;2.88;1.10;;;23.20;99.90;;;;;;5037153;28;20283;-77
2022/06/13 08:47:02;;;;;;;2.78;0.90;;;22.90;98.30;;;;;;5039519;28;20220;-76
2022/06/13 08:49:34;;;;;;;2.15;1.15;;;22.90;97.80;;;;;;5037776;28;20275;-76
2022/06/13 08:52:04;;;;;;;3.17;0.90;;;23.00;98.70;;;;;;5036890;28;20250;-76
2022/06/13 08:54:34;;;;;;;3.08;0.90;;;23.30;98.50;;;;;;5036562;28;20225;-77
2022/06/13 08:57:08;;;;;;;4.65;1.15;;;23.40;98.00;;;;;;5038957;28;20300;-76
2022/06/13 08:59:44;;;;;;;3.63;1.05;;;23.60;98.30;;;;;;5039526;28;20608;-76
2022/06/13 09:02:13;;;;;;;4.70;1.10;;;23.60;97.50;;;;;;5039283;28;20237;-77
2022/06/13 09:04:53;;;;;;;3.28;1.10;;;23.30;97.40;;;;;;5038153;28;20222;-76
2022/06/13 09:07:28;;;;;;;3.85;1.10;;;23.00;98.70;;;;;;5037395;28;20221;-78
2022/06/13 09:10:14;;;;;;;4.72;0.95;;;23.10;97.00;;;;;;5036982;28;20267;-77
2022/06/13 09:12:58;;;;;;;3.58;1.00;;;23.10;96.50;;;;;;5037947;28;20233;-78
2022/06/13 09:15:35;;;;;;;4.18;1.20;;;23.30;96.60;;;;;;5036895;28;20217;-77
2022/06/13 09:18:29;;;;;;;2.53;0.93;;;23.70;96.20;;;;;;5042662;28;20267;-81
2022/06/13 09:21:21;;;;;;;3.83;0.95;;;23.60;95.80;;;;;;5039341;28;20205;-78
2022/06/13 09:23:54;;;;;;;3.10;0.85;;;23.30;95.60;;;;;;5039182;28;20209;-79
2022/06/13 09:26:28;;;;;;;3.80;1.15;;;23.00;96.40;;;;;;5036613;28;20209;-77
2022/06/13 09:29:09;;;;;;;3.10;0.90;;;22.70;96.80;;;;;;5036765;28;20213;-79
2022/06/13 09:31:42;;;;;;;1.58;0.60;;;22.40;96.80;;;;;;5038194;28;20688;-79
2022/06/13 09:34:20;;;;;;;2.88;0.73;;;22.20;94.70;;;;;;5039361;28;20217;-78
2022/06/13 09:37:26;;;;;;;4.40;0.82;;;22.30;94.20;;;;;;5036215;28;20221;-78
2022/06/13 09:39:53;;;;;;;2.72;1.10;;;22.60;94.20;;;;;;5035401;28;20213;-77
2022/06/13 09:42:33;;;;;;;2.53;0.60;;;22.80;94.60;;;;;;5035779;28;20209;-79
2022/06/13 09:45:30;;;;;;;3.05;0.95;;;23.10;93.80;;;;;;5036961;28;20700;-79
2022/06/13 09:48:15;;;;;;;3.22;0.75;;;23.30;93.80;;;;;;5038234;28;20878;-78
2022/06/13 09:51:21;;;;;;;2.33;0.70;;;23.10;94.30;;;;;;5036351;28;20229;-79
2022/06/13 09:54:07;;;;;;;1.92;0.80;;;23.20;93.60;;;;;;5036453;28;20213;-79
2022/06/13 09:56:58;;;;;;;2.72;0.90;;;23.10;93.80;;;;;;5035333;28;20221;-80
2022/06/13 09:59:40;;;;;;;2.63;1.02;;;23.00;93.50;;;;;;5034614;28;20301;-77
2022/06/13 10:02:44;;;;;;;2.88;1.10;;;22.80;93.40;;;;;;5039334;28;20291;-78
2022/06/13 10:05:34;;;;;;;3.13;0.85;;;22.80;93.30;;;;;;5051840;28;20263;-78
2022/06/13 10:08:04;;;;;;;2.28;0.90;;;23.00;93.00;;;;;;5036191;28;20324;-78
2022/06/13 10:10:53;;;;;;;2.00;1.00;;;23.00;93.20;;;;;;5036871;28;20221;-78
2022/06/13 10:13:32;;;;;;;4.43;1.10;;;23.20;93.30;;;;;;5036464;28;20701;-80
2022/06/13 10:16:18;;;;;;;2.72;0.90;;;23.40;93.80;;;;;;5036028;28;20205;-79
2022/06/13 10:19:11;;;;;;;2.40;1.10;;;23.20;93.50;;;;;;5034970;28;20228;-77
2022/06/13 10:21:44;;;;;;;3.05;1.00;;;22.70;93.80;;;;;;5038443;28;20597;-77
2022/06/13 10:24:28;;;;;;;2.88;1.10;;;22.30;94.70;;;;;;5035808;28;20845;-77
2022/06/13 10:27:13;;;;;;;4.95;0.90;;;22.40;95.10;;;;;;5033484;28;20206;-77
2022/06/13 10:29:59;;;;;;;4.50;1.08;;;22.50;94.20;;;;;;5035585;28;20217;-75
2022/06/13 10:32:52;;;;;;;3.83;1.38;;;22.40;93.90;;;;;;5037553;28;20232;-77
2022/06/13 10:35:48;;;;;;;4.65;1.20;;;22.00;94.30;;;;;;5037745;28;20213;-78
2022/06/13 10:38:33;;;;;;;4.55;1.08;;;21.70;94.30;;;;;;5038331;28;20213;-79
2022/06/13 10:41:00;;;;;;;3.17;1.30;;;21.60;94.10;;;;;;5034662;28;20213;-78
2022/06/13 10:43:30;;;;;;;2.13;1.05;;;21.80;94.20;;;;;;5038453;28;20270;-78
2022/06/13 10:45:57;;;;;;;4.35;1.10;;;22.00;93.60;;;;;;5035451;28;20237;-78
2022/06/13 10:48:34;;;;;;;2.67;0.90;;;22.40;93.80;;;;;;5036792;28;20209;-77
2022/06/13 10:51:03;;;;;;;5.07;1.00;;;22.80;93.80;;;;;;5038345;28;20347;-78
2022/06/13 10:53:39;;;;;;;4.82;1.55;;;23.20;93.70;;;;;;5035867;28;20236;-77
2022/06/13 10:56:21;;;;;;;3.85;1.00;;;23.20;93.40;;;;;;5035150;28;20736;-77
2022/06/13 10:58:50;;;;;;;2.22;0.93;;;23.10;93.10;;;;;;5035996;28;20753;-77
2022/06/13 11:01:20;;;;;;;3.15;1.08;;;22.80;92.70;;;;;;5036127;28;20233;-78
2022/06/13 11:04:19;;;;;;;1.92;0.70;;;22.50;92.20;;;;;;5037493;28;20292;-77
2022/06/13 11:06:50;;;;;;;3.60;1.00;;;22.30;91.90;;;;;;5034555;28;20217;-78
2022/06/13 11:09:26;;;;;;;2.38;0.90;;;22.10;92.20;;;;;;5036234;28;20231;-78
2022/06/13 11:11:59;;;;;;;1.92;0.90;;;21.90;92.30;;;;;;5037569;28;20364;-79
2022/06/13 11:14:34;;;;;;;2.38;1.05;;;21.90;92.60;;;;;;5035604;28;20560;-78
2022/06/13 11:22:43;;;;;;;4.38;1.08;;;22.50;93.10;;;;;;5039324;28;20275;-77
2022/06/13 11:25:30;;;;;;;3.10;0.93;;;22.80;92.70;;;;;;5038316;28;20333;-77
2022/06/13 11:28:12;;;;;;;2.45;1.00;;;22.70;92.80;;;;;;5038039;28;20276;-76
2022/06/13 11:30:43;;;;;;;4.13;1.00;;;22.50;91.20;;;;;;5039970;28;20214;-78
2022/06/13 11:33:10;;;;;;;2.20;1.20;;;22.20;91.90;;;;;;5039859;28;20238;-79
2022/06/13 11:35:54;;;;;;;3.65;1.38;;;22.10;92.90;;;;;;5042224;28;20213;-78
2022/06/13 11:38:24;;;;;;;1.83;0.90;;;22.10;93.80;;;;;;5040166;28;20220;-77
2022/06/13 11:41:06;;;;;;;5.80;0.95;;;21.70;93.40;;;;;;5029710;28;20764;-77
2022/06/13 11:43:44;;;;;;;2.50;1.10;;;21.50;93.70;;;;;;5038323;28;20336;-77
2022/06/13 11:46:30;;;;;;;3.35;0.95;;;21.30;93.60;;;;;;5037708;28;20300;-79
2022/06/13 11:49:21;;;;;;;7.32;1.20;;;21.30;94.30;;;;;;5038159;28;20235;-78
2022/06/13 11:55:17;;;;;;;3.08;1.27;;;21.70;93.90;;;;;;5037543;28;20225;-77
2022/06/13 11:57:53;;;;;;;4.05;1.42;;;22.00;93.00;;;;;;5038366;28;20291;-77
2022/06/13 12:00:20;;;;;;;2.92;0.90;;;22.20;92.90;;;;;;5037937;28;20210;-77
2022/06/13 12:02:50;;;;;;;3.20;1.15;;;22.40;91.70;;;;;;5041064;28;20284;-78
2022/06/13 12:05:22;;;;;;;3.20;1.00;;;22.40;91.80;;;;;;5038910;28;20351;-78
2022/06/13 12:08:03;;;;;;;5.28;1.00;;;22.50;92.00;;;;;;5040691;28;20213;-77
2022/06/13 12:10:34;;;;;;;3.13;0.80;;;22.70;92.10;;;;;;5038499;28;20311;-77
2022/06/13 12:13:02;;;;;;;2.63;1.00;;;22.70;91.80;;;;;;5037143;28;20596;-77
2022/06/13 12:15:36;;;;;;;2.28;0.90;;;22.50;91.50;;;;;;5037495;28;20709;-77
2022/06/13 12:18:18;;;;;;;3.67;1.23;;;22.30;91.60;;;;;;5045285;28;20205;-77
2022/06/13 12:20:55;;;;;;;2.50;0.90;;;22.00;91.80;;;;;;5069859;28;20241;-78
2022/06/13 12:23:41;;;;;;;9.77;1.50;;;21.80;91.90;;;;;;5037545;28;20201;-79
2022/06/13 12:26:32;;;;;;;2.30;0.85;;;21.70;92.10;;;;;;5038775;28;20685;-76
2022/06/13 12:29:20;;;;;;;8.15;1.35;;;21.90;91.80;;;;;;5039266;28;20739;-81
2022/06/13 12:32:09;;;;;;;4.78;1.45;;;21.70;91.60;;;;;;5038634;28;20347;-78
2022/06/13 12:35:09;;;;;;;5.25;1.15;;;21.50;92.40;;;;;;5041702;28;20201;-77
2022/06/13 12:38:04;;;;;;;4.43;0.90;;;21.40;93.70;;;;;;5039895;28;20236;-77
2022/06/13 12:41:04;;;;;;;5.80;1.30;;;21.80;93.40;;;;;;5035674;28;20225;-78
2022/06/13 12:43:39;;;;;;;5.85;1.00;;;22.20;93.90;;;;;;5038164;28;20198;-77
2022/06/13 12:46:50;;;;;;;5.18;1.40;;;22.50;92.60;;;;;;5037113;28;20556;-78
2022/06/13 12:49:35;;;;;;;4.05;0.80;;;22.70;92.50;;;;;;5038093;28;20596;-77
2022/06/13 12:52:40;;;;;;;3.85;1.10;;;22.90;92.20;;;;;;5037506;28;20596;-78
2022/06/13 12:55:37;;;;;;;4.53;1.33;;;22.80;92.20;;;;;;5039051;28;20257;-78
2022/06/13 12:58:31;;;;;;;5.90;1.30;;;22.60;92.00;;;;;;5036165;28;20209;-78
2022/06/13 13:01:23;;;;;;;4.10;1.08;;;22.70;92.70;;;;;;5039311;28;20674;-77
2022/06/13 13:04:28;;;;;;;3.45;1.10;;;22.80;91.60;;;;;;5035582;28;20237;-79
2022/06/13 13:07:02;;;;;;;2.08;1.20;;;22.80;92.00;;;;;;5038989;28;20210;-77
2022/06/13 13:10:07;;;;;;;3.60;1.75;;;22.90;92.00;;;;;;5058906;28;20226;-77
2022/06/13 13:12:51;;;;;;;3.28;1.08;;;22.80;91.50;;;;;;5028100;28;20229;-78
2022/06/13 13:15:44;;;;;;;4.93;1.10;;;22.70;91.90;;;;;;5027722;28;20206;-77
2022/06/13 13:18:29;;;;;;;2.33;1.05;;;22.80;91.70;;;;;;5035577;28;20248;-77
2022/06/13 13:21:04;;;;;;;5.45;1.20;;;22.70;91.70;;;;;;5036851;28;20622;-77
2022/06/13 13:23:37;;;;;;;2.35;0.90;;;22.40;91.50;;;;;;5037397;28;20217;-78
2022/06/13 13:26:03;;;;;;;2.83;1.05;;;22.30;92.30;;;;;;5038895;28;20224;-78
2022/06/13 13:28:49;;;;;;;3.40;1.10;;;22.30;92.10;;;;;;5036987;28;20259;-76
2022/06/13 13:31:37;;;;;;;2.35;0.90;;;22.50;92.00;;;;;;5034404;28;20240;-78
2022/06/13 13:34:14;;;;;;;3.35;0.80;;;22.70;92.20;;;;;;5036464;28;20237;-77
2022/06/13 13:37:19;;;;;;;3.95;1.10;;;22.70;90.10;;;;;;5037834;28;20215;-77
2022/06/13 13:40:16;;;;;;;4.32;0.90;;;22.70;90.40;;;;;;5027476;28;20221;-78
2022/06/13 13:42:48;;;;;;;2.47;1.10;;;22.70;90.60;;;;;;5036038;28;20584;-78
2022/06/13 13:45:39;;;;;;;4.47;1.05;;;22.90;90.90;;;;;;5037717;28;20224;-76
2022/06/13 13:48:22;;;;;;;2.85;0.95;;;23.00;90.40;;;;;;5037953;28;20680;-79
2022/06/13 13:50:55;;;;;;;1.63;0.80;;;23.10;90.10;;;;;;5037493;28;20206;-78